createdAt,value
2023-01-31T00:01:37.578Z,43.01
2023-01-31T00:04:07.800Z,42.99
2023-01-31T00:06:38.876Z,42.90
2023-01-31T00:09:08.349Z,42.97
2023-01-31T00:11:36.203Z,43.04
2023-01-31T00:14:05.106Z,43.43
2023-01-31T00:16:32.360Z,43.20
2023-01-31T00:18:59.319Z,43.15
2023-01-31T00:21:29.312Z,43.04
2023-01-31T00:23:57.787Z,43.06
2023-01-31T00:26:30.675Z,42.97
2023-01-31T00:29:00.329Z,42.96
2023-01-31T00:31:30.772Z,43.01
2023-01-31T00:33:59.042Z,43.74
2023-01-31T00:36:31.909Z,43.76
2023-01-31T00:39:01.009Z,43.16
2023-01-31T00:41:29.782Z,43.44
2023-01-31T00:43:57.863Z,43.52
2023-01-31T00:46:25.211Z,43.74
2023-01-31T00:48:52.700Z,43.86
2023-01-31T00:51:21.691Z,44.06
2023-01-31T00:53:50.514Z,44.23
2023-01-31T00:56:22.993Z,43.67
2023-01-31T00:58:50.967Z,43.91
2023-01-31T01:01:24.540Z,44.34
2023-01-31T01:03:52.200Z,44.21
2023-01-31T01:06:19.696Z,43.84
2023-01-31T01:08:46.980Z,44.14
2023-01-31T01:11:18.802Z,44.07
2023-01-31T01:13:47.239Z,44.22
2023-01-31T01:16:17.864Z,43.94
2023-01-31T01:18:48.401Z,44.36
2023-01-31T01:21:16.877Z,44.48
2023-01-31T01:23:44.152Z,44.66
2023-01-31T01:26:17.355Z,44.35
2023-01-31T01:28:44.735Z,44.00
2023-01-31T01:31:13.350Z,44.23
2023-01-31T01:33:41.499Z,44.34
2023-01-31T01:36:13.394Z,44.69
2023-01-31T01:38:42.296Z,44.27
2023-01-31T01:41:10.998Z,44.72
2023-01-31T01:43:54.621Z,44.71
2023-01-31T01:46:30.534Z,45.25
2023-01-31T01:49:12.844Z,44.78
2023-01-31T01:51:42.376Z,44.89
2023-01-31T01:54:14.878Z,44.47
2023-01-31T01:56:46.641Z,44.92
2023-01-31T01:59:23.031Z,45.35
2023-01-31T02:01:51.085Z,45.07
2023-01-31T02:04:23.517Z,45.21
2023-01-31T02:06:51.616Z,45.04
2023-01-31T02:10:00.300Z,45.36
2023-01-31T02:12:29.996Z,45.68
2023-01-31T02:14:57.125Z,45.44
2023-01-31T02:17:25.662Z,45.35
2023-01-31T02:20:02.187Z,45.98
2023-01-31T02:22:48.395Z,45.56
2023-01-31T02:25:55.647Z,46.13
2023-01-31T02:28:55.309Z,45.93
2023-01-31T02:31:41.303Z,45.66
2023-01-31T02:34:08.974Z,46.22
2023-01-31T02:36:44.927Z,45.83
2023-01-31T02:39:17.724Z,46.19
2023-01-31T02:41:55.798Z,45.94
2023-01-31T02:45:01.752Z,46.58
2023-01-31T02:47:58.342Z,46.28
2023-01-31T02:50:39.472Z,46.73
2023-01-31T02:53:30.769Z,46.44
2023-01-31T02:56:18.459Z,46.52
2023-01-31T02:59:01.098Z,45.84
2023-01-31T03:01:33.141Z,46.09
2023-01-31T03:04:04.785Z,46.25
2023-01-31T03:06:33.736Z,46.21
2023-01-31T03:09:25.158Z,46.53
2023-01-31T03:12:19.503Z,46.95
2023-01-31T03:14:53.097Z,47.28
2023-01-31T03:17:33.256Z,46.85
2023-01-31T03:20:20.817Z,47.07
2023-01-31T03:23:00.383Z,47.16
2023-01-31T03:25:33.565Z,46.77
2023-01-31T03:28:09.547Z,46.66
2023-01-31T03:30:47.083Z,47.51
2023-01-31T03:33:17.246Z,47.13
2023-01-31T03:35:51.670Z,47.17
2023-01-31T03:38:25.991Z,46.97
2023-01-31T03:41:02.339Z,47.65
2023-01-31T03:44:01.828Z,47.19
2023-01-31T03:46:40.298Z,47.37
2023-01-31T03:49:11.960Z,47.04
2023-01-31T03:51:45.005Z,46.82
2023-01-31T03:54:19.513Z,47.54
2023-01-31T03:56:54.578Z,47.49
2023-01-31T03:59:28.221Z,46.62
2023-01-31T04:01:57.617Z,46.70
2023-01-31T04:05:04.854Z,46.72
2023-01-31T04:07:32.506Z,46.81
2023-01-31T04:09:59.782Z,46.57
2023-01-31T04:12:26.913Z,46.99
2023-01-31T04:14:53.862Z,47.38
2023-01-31T04:17:20.906Z,46.72
2023-01-31T04:19:47.798Z,47.12
2023-01-31T04:22:14.949Z,47.31
2023-01-31T04:24:42.036Z,47.26
2023-01-31T04:27:08.956Z,46.87
2023-01-31T04:29:35.889Z,46.67
2023-01-31T04:32:03.005Z,47.18
2023-01-31T04:34:34.161Z,47.08
2023-01-31T04:37:01.483Z,47.43
2023-01-31T04:39:28.583Z,46.92
2023-01-31T04:41:55.841Z,47.52
2023-01-31T04:44:22.827Z,47.04
2023-01-31T04:46:49.845Z,47.52
2023-01-31T04:49:16.863Z,47.21
2023-01-31T04:51:43.888Z,47.55
2023-01-31T04:54:11.081Z,47.43
2023-01-31T04:56:38.138Z,47.27
2023-01-31T04:59:05.398Z,47.10
2023-01-31T05:01:32.828Z,47.38
2023-01-31T05:03:59.752Z,47.53
2023-01-31T05:06:26.656Z,47.55
2023-01-31T05:08:54.701Z,47.85
2023-01-31T05:11:21.845Z,47.93
2023-01-31T05:13:48.905Z,47.44
2023-01-31T05:16:15.898Z,47.46
2023-01-31T05:18:42.803Z,48.31
2023-01-31T05:21:11.449Z,48.00
2023-01-31T05:23:39.012Z,47.57
2023-01-31T05:26:05.994Z,47.50
2023-01-31T05:28:32.893Z,47.97
2023-01-31T05:31:06.814Z,48.79
2023-01-31T05:33:34.811Z,47.55
2023-01-31T05:36:02.643Z,48.10
2023-01-31T05:38:29.697Z,47.60
2023-01-31T05:40:56.579Z,47.89
2023-01-31T05:43:23.828Z,48.32
2023-01-31T05:45:50.895Z,48.24
2023-01-31T05:48:17.845Z,48.22
2023-01-31T06:07:19.266Z,47.24
2023-01-31T06:09:46.187Z,47.52
2023-01-31T06:12:14.821Z,48.53
2023-01-31T06:14:41.815Z,48.14
2023-01-31T06:17:08.857Z,48.35
2023-01-31T06:19:35.809Z,49.06
2023-01-31T06:22:02.757Z,49.12
2023-01-31T06:24:29.825Z,49.92
2023-01-31T06:26:56.981Z,49.08
2023-01-31T06:29:24.041Z,49.00
2023-01-31T06:31:51.107Z,48.94
2023-01-31T06:34:18.243Z,49.04
2023-01-31T06:36:45.145Z,48.88
2023-01-31T06:39:13.759Z,48.83
2023-01-31T06:41:40.713Z,48.85
2023-01-31T06:44:07.968Z,48.93
2023-01-31T06:46:35.482Z,48.97
2023-01-31T06:49:02.486Z,49.18
2023-01-31T06:51:30.312Z,48.92
2023-01-31T06:53:57.580Z,49.26
2023-01-31T06:56:24.460Z,49.19
2023-01-31T06:58:51.413Z,48.97
2023-01-31T07:01:18.394Z,48.92
2023-01-31T07:03:45.325Z,48.88
2023-01-31T07:06:12.504Z,48.80
2023-01-31T07:08:39.564Z,48.66
2023-01-31T07:11:06.683Z,48.23
2023-01-31T07:13:34.031Z,47.92
2023-01-31T07:16:01.092Z,47.41
2023-01-31T07:18:28.125Z,46.30
2023-01-31T07:20:55.139Z,45.58
2023-01-31T07:23:22.113Z,44.72
2023-01-31T07:25:49.025Z,44.11
2023-01-31T07:28:16.308Z,43.45
2023-01-31T07:30:44.016Z,42.58
2023-01-31T07:33:11.965Z,41.68
2023-01-31T07:35:38.994Z,40.62
2023-01-31T07:38:05.934Z,39.97
2023-01-31T07:40:33.275Z,39.53
2023-01-31T07:43:00.594Z,38.37
2023-01-31T07:45:28.206Z,37.51
2023-01-31T07:47:59.230Z,36.77
2023-01-31T07:50:27.478Z,36.06
2023-01-31T07:52:54.473Z,35.06
2023-01-31T07:55:21.832Z,33.86
2023-01-31T07:57:49.053Z,32.82
2023-01-31T08:00:35.102Z,32.61
2023-01-31T08:03:20.910Z,31.69
2023-01-31T08:05:48.606Z,31.13
2023-01-31T08:08:15.579Z,30.66
2023-01-31T08:10:42.516Z,30.42
2023-01-31T08:13:12.012Z,29.25
2023-01-31T08:15:39.185Z,28.47
2023-01-31T08:18:06.730Z,27.54
2023-01-31T08:20:34.636Z,27.16
2023-01-31T08:23:01.730Z,27.28
2023-01-31T08:25:30.695Z,26.74
2023-01-31T08:27:59.403Z,26.24
2023-01-31T08:30:27.211Z,25.39
2023-01-31T08:32:54.198Z,25.32
2023-01-31T08:35:21.529Z,24.71
2023-01-31T08:37:49.178Z,23.70
2023-01-31T08:40:16.166Z,23.37
2023-01-31T08:42:43.539Z,23.19
2023-01-31T08:45:11.192Z,23.02
2023-01-31T08:47:39.230Z,22.07
2023-01-31T08:50:15.831Z,22.75
2023-01-31T08:53:00.286Z,22.03
2023-01-31T08:55:29.188Z,22.51
2023-01-31T08:58:00.556Z,21.40
2023-01-31T09:00:28.058Z,21.39
2023-01-31T09:02:57.448Z,22.04
2023-01-31T09:05:25.951Z,20.38
2023-01-31T09:07:53.833Z,20.65
2023-01-31T09:10:22.240Z,19.64
2023-01-31T09:12:49.169Z,20.08
2023-01-31T09:15:16.134Z,19.98
2023-01-31T09:17:44.039Z,19.64
2023-01-31T09:20:11.632Z,19.23
2023-01-31T09:22:38.623Z,19.64
2023-01-31T09:25:07.327Z,18.71
2023-01-31T09:27:36.635Z,17.75
2023-01-31T09:30:04.517Z,18.02
2023-01-31T09:32:32.107Z,18.23
2023-01-31T09:34:59.704Z,18.14
2023-01-31T09:37:29.602Z,17.84
2023-01-31T09:39:57.216Z,18.02
2023-01-31T09:42:29.514Z,17.88
2023-01-31T09:45:00.018Z,17.44
2023-01-31T09:47:31.035Z,18.09
2023-01-31T09:50:13.024Z,17.52
2023-01-31T09:52:40.025Z,17.11
2023-01-31T09:55:30.780Z,17.36
2023-01-31T09:58:28.609Z,16.41
2023-01-31T10:01:03.239Z,15.77
2023-01-31T10:03:45.362Z,15.60
2023-01-31T10:06:21.686Z,15.71
2023-01-31T10:09:10.741Z,15.70
2023-01-31T10:11:44.110Z,15.56
2023-01-31T10:14:48.057Z,15.06
2023-01-31T10:17:51.953Z,14.95
2023-01-31T10:20:28.074Z,15.02
2023-01-31T10:22:55.051Z,15.42
2023-01-31T10:25:34.996Z,14.45
2023-01-31T10:28:09.796Z,15.34
2023-01-31T10:30:59.707Z,14.39
2023-01-31T10:33:48.026Z,14.10
2023-01-31T10:36:42.553Z,14.73
2023-01-31T10:39:21.432Z,15.07
2023-01-31T10:41:59.945Z,15.05
2023-01-31T10:44:51.182Z,14.50
2023-01-31T10:47:20.210Z,14.28
2023-01-31T10:49:49.671Z,14.41
2023-01-31T10:52:28.835Z,13.97
2023-01-31T10:55:33.581Z,14.44
2023-01-31T10:58:00.623Z,15.01
2023-01-31T11:00:30.791Z,14.71
2023-01-31T11:02:58.849Z,15.32
2023-01-31T11:05:29.172Z,14.59
2023-01-31T11:07:57.881Z,14.94
2023-01-31T11:10:31.146Z,13.09
2023-01-31T11:13:04.807Z,14.54
2023-01-31T11:15:43.112Z,14.10
2023-01-31T11:18:23.740Z,13.69
2023-01-31T11:20:50.928Z,14.08
2023-01-31T11:23:24.068Z,14.12
2023-01-31T11:25:52.495Z,13.59
2023-01-31T11:28:38.512Z,13.62
2023-01-31T11:31:16.089Z,13.64
2023-01-31T11:33:47.587Z,12.84
2023-01-31T11:36:26.858Z,13.51
2023-01-31T11:38:55.022Z,14.45
2023-01-31T11:41:35.200Z,14.51
2023-01-31T11:44:16.184Z,15.53
2023-01-31T11:46:52.659Z,16.50
2023-01-31T11:49:33.995Z,17.38
2023-01-31T11:52:11.979Z,18.01
2023-01-31T11:54:44.062Z,19.13
2023-01-31T11:57:23.330Z,18.83
2023-01-31T11:59:55.518Z,20.04
2023-01-31T12:02:37.254Z,20.85
2023-01-31T12:05:16.568Z,21.69
2023-01-31T12:07:47.779Z,21.83
2023-01-31T12:10:33.797Z,21.93
2023-01-31T12:13:17.844Z,22.30
2023-01-31T12:16:00.632Z,22.58
2023-01-31T12:18:51.876Z,22.80
2023-01-31T12:21:28.220Z,22.42
2023-01-31T12:24:01.253Z,22.82
2023-01-31T12:26:44.299Z,22.91
2023-01-31T12:29:25.817Z,22.96
2023-01-31T12:32:29.079Z,22.99
2023-01-31T12:35:10.059Z,23.52
2023-01-31T12:37:49.172Z,23.38
2023-01-31T12:40:47.938Z,23.16
2023-01-31T12:43:26.521Z,23.35
2023-01-31T12:46:07.108Z,23.51
2023-01-31T12:48:43.123Z,23.84
2023-01-31T12:51:25.649Z,23.74
2023-01-31T12:53:59.226Z,23.67
2023-01-31T12:56:47.947Z,23.20
2023-01-31T12:59:27.146Z,23.71
2023-01-31T13:02:12.392Z,23.86
2023-01-31T13:05:04.313Z,27.16
2023-01-31T13:07:43.139Z,27.78
2023-01-31T13:10:34.567Z,27.60
2023-01-31T13:13:02.761Z,27.39
2023-01-31T13:15:29.562Z,27.42
2023-01-31T13:18:03.526Z,27.08
2023-01-31T13:20:42.692Z,27.57
2023-01-31T13:23:24.796Z,28.31
2023-01-31T13:26:23.772Z,28.35
2023-01-31T13:29:00.551Z,28.59
2023-01-31T13:31:31.031Z,28.96
2023-01-31T13:33:58.145Z,29.20
2023-01-31T13:36:31.976Z,29.09
2023-01-31T13:39:05.753Z,29.45
2023-01-31T13:41:34.364Z,29.13
2023-01-31T13:44:02.345Z,29.55
2023-01-31T13:46:32.573Z,30.15
2023-01-31T13:49:10.740Z,30.38
2023-01-31T13:52:11.769Z,29.77
2023-01-31T13:54:49.179Z,28.07
2023-01-31T13:57:29.231Z,26.94
2023-01-31T14:00:10.313Z,26.65
2023-01-31T14:02:37.736Z,27.17
2023-01-31T14:05:26.655Z,28.27
2023-01-31T14:08:37.705Z,30.59
2023-01-31T14:11:25.603Z,31.93
2023-01-31T14:14:19.921Z,33.52
2023-01-31T14:16:50.887Z,33.08
2023-01-31T14:19:24.542Z,34.43
2023-01-31T14:22:04.007Z,35.13
2023-01-31T14:24:56.887Z,34.92
2023-01-31T14:27:39.755Z,34.81
2023-01-31T14:30:07.198Z,35.14
2023-01-31T14:32:44.811Z,35.70
2023-01-31T14:35:14.805Z,36.23
2023-01-31T14:38:09.561Z,36.04
2023-01-31T14:41:07.500Z,36.16
2023-01-31T14:43:56.290Z,36.43
2023-01-31T14:47:25.873Z,36.00
2023-01-31T14:50:27.061Z,35.76
2023-01-31T14:53:32.636Z,36.34
2023-01-31T14:56:27.847Z,37.19
2023-01-31T14:58:57.185Z,36.46
2023-01-31T15:01:34.739Z,36.96
2023-01-31T15:04:03.885Z,36.43
2023-01-31T15:06:40.875Z,36.53
2023-01-31T15:09:18.628Z,36.91
2023-01-31T15:11:50.463Z,36.86
2023-01-31T15:14:49.332Z,37.54
2023-01-31T15:17:40.744Z,37.13
2023-01-31T15:20:21.890Z,37.29
2023-01-31T15:22:49.906Z,37.34
2023-01-31T15:25:35.118Z,37.72
2023-01-31T15:28:04.127Z,37.58
2023-01-31T15:30:34.338Z,37.28
2023-01-31T15:33:13.577Z,37.44
2023-01-31T15:35:55.743Z,37.69
2023-01-31T15:38:57.398Z,37.50
2023-01-31T15:41:42.386Z,37.13
2023-01-31T15:44:22.517Z,36.66
2023-01-31T15:46:55.045Z,35.59
2023-01-31T15:49:38.145Z,35.12
2023-01-31T15:52:13.903Z,35.03
2023-01-31T15:55:03.310Z,35.01
2023-01-31T15:57:41.675Z,35.15
2023-01-31T16:00:17.685Z,34.68
2023-01-31T16:02:47.162Z,34.94
2023-01-31T16:05:23.700Z,34.78
2023-01-31T16:07:50.941Z,34.33
2023-01-31T16:10:18.438Z,34.67
2023-01-31T16:12:49.336Z,34.73
2023-01-31T16:15:23.908Z,34.55
2023-01-31T16:17:52.097Z,34.96
2023-01-31T16:20:39.153Z,35.50
2023-01-31T16:23:27.137Z,35.40
2023-01-31T16:25:56.688Z,35.08
2023-01-31T16:28:24.882Z,35.19
2023-01-31T16:30:52.296Z,35.27
2023-01-31T16:33:23.910Z,35.76
2023-01-31T16:36:16.584Z,35.86
2023-01-31T16:38:57.445Z,35.55
2023-01-31T16:41:48.191Z,35.55
2023-01-31T16:44:19.346Z,35.52
2023-01-31T16:46:48.215Z,35.38
2023-01-31T16:49:21.816Z,34.99
2023-01-31T16:51:50.129Z,35.02
2023-01-31T16:54:25.779Z,35.28
2023-01-31T16:57:01.956Z,35.55
2023-01-31T16:59:35.191Z,36.02
2023-01-31T17:02:05.544Z,36.87
2023-01-31T17:04:32.825Z,36.38
2023-01-31T17:07:06.053Z,36.72
2023-01-31T17:09:35.539Z,36.65
2023-01-31T17:12:02.613Z,36.48
2023-01-31T17:14:30.383Z,36.87
2023-01-31T17:16:57.327Z,36.75
2023-01-31T17:19:24.381Z,36.90
2023-01-31T17:21:51.632Z,36.26
2023-01-31T17:24:22.723Z,36.72
2023-01-31T17:26:52.005Z,36.65
2023-01-31T17:29:20.576Z,36.64
2023-01-31T17:31:47.600Z,36.76
2023-01-31T17:34:16.023Z,37.02
2023-01-31T17:36:44.457Z,37.22
2023-01-31T17:39:11.576Z,37.09
2023-01-31T17:41:41.521Z,37.00
2023-01-31T17:44:13.047Z,36.47
2023-01-31T17:46:40.528Z,36.45
2023-01-31T17:49:07.439Z,36.29
2023-01-31T17:51:34.562Z,36.49
2023-01-31T17:54:01.486Z,36.29
2023-01-31T17:56:28.425Z,36.97
2023-01-31T17:58:55.454Z,36.83
2023-01-31T18:01:22.407Z,37.06
2023-01-31T18:03:50.588Z,36.25
2023-01-31T18:06:17.760Z,36.81
2023-01-31T18:08:49.039Z,36.85
2023-01-31T18:11:17.322Z,37.39
2023-01-31T18:13:45.302Z,37.33
2023-01-31T18:16:15.700Z,37.35
2023-01-31T18:18:46.312Z,37.39
2023-01-31T18:21:16.189Z,37.28
2023-01-31T18:23:43.219Z,37.78
2023-01-31T18:26:11.446Z,37.58
2023-01-31T18:28:38.547Z,37.70
2023-01-31T18:31:10.797Z,37.89
2023-01-31T18:33:38.354Z,37.89
2023-01-31T18:36:06.154Z,37.67
2023-01-31T18:38:33.555Z,38.42
2023-01-31T18:41:00.778Z,38.33
2023-01-31T18:43:31.067Z,38.59
2023-01-31T18:45:58.046Z,38.70
2023-01-31T18:48:25.128Z,38.34
2023-01-31T18:50:52.519Z,38.35
2023-01-31T18:53:19.502Z,39.00
2023-01-31T18:55:46.418Z,38.78
2023-01-31T18:58:13.449Z,38.91
2023-01-31T19:00:40.427Z,38.73
2023-01-31T19:03:07.332Z,39.20
2023-01-31T19:05:37.112Z,39.39
2023-01-31T19:08:04.175Z,39.58
2023-01-31T19:10:31.332Z,40.18
2023-01-31T19:12:58.237Z,39.29
2023-01-31T19:15:25.363Z,39.83
2023-01-31T19:17:52.725Z,39.21
2023-01-31T19:20:19.888Z,39.92
2023-01-31T19:22:46.792Z,39.85
2023-01-31T19:25:13.734Z,40.57
2023-01-31T19:27:41.180Z,40.04
2023-01-31T19:30:09.163Z,39.74
2023-01-31T19:32:36.036Z,39.82
2023-01-31T19:35:03.000Z,39.36
2023-01-31T19:37:29.945Z,40.13
2023-01-31T19:39:57.175Z,39.92
2023-01-31T19:42:24.127Z,39.72
2023-01-31T19:44:51.248Z,39.65
2023-01-31T19:47:18.595Z,39.70
2023-01-31T19:49:45.487Z,39.68
2023-01-31T19:52:12.443Z,39.89
2023-01-31T19:54:41.524Z,39.41
2023-01-31T19:57:08.650Z,39.68
2023-01-31T19:59:39.101Z,39.75
2023-01-31T20:02:06.641Z,39.96
2023-01-31T20:04:36.478Z,40.04
2023-01-31T20:07:03.624Z,40.14
2023-01-31T20:09:30.489Z,39.80
2023-01-31T20:11:57.666Z,40.45
2023-01-31T20:14:24.765Z,40.68
2023-01-31T20:16:52.136Z,40.69
2023-01-31T20:19:20.508Z,40.82
2023-01-31T20:21:47.697Z,40.51
2023-01-31T20:24:14.970Z,41.13
2023-01-31T20:26:42.181Z,41.12
2023-01-31T20:29:09.968Z,41.15
2023-01-31T20:31:46.300Z,40.98
2023-01-31T20:34:13.587Z,41.51
2023-01-31T20:36:40.455Z,41.84
2023-01-31T20:39:08.743Z,41.54
2023-01-31T20:41:37.226Z,41.53
2023-01-31T20:44:05.479Z,41.46
2023-01-31T20:46:32.402Z,41.05
2023-01-31T20:48:59.587Z,41.50
2023-01-31T20:51:26.576Z,41.46
2023-01-31T20:53:53.527Z,41.05
2023-01-31T20:56:20.520Z,41.00
2023-01-31T20:58:52.330Z,41.08
2023-01-31T21:01:20.453Z,41.66
2023-01-31T21:03:52.183Z,41.37
2023-01-31T21:06:20.731Z,41.81
2023-01-31T21:08:48.723Z,42.05
2023-01-31T21:11:16.012Z,41.64
2023-01-31T21:13:44.105Z,41.53
2023-01-31T21:16:12.521Z,42.28
2023-01-31T21:18:40.906Z,41.71
2023-01-31T21:21:11.223Z,41.75
2023-01-31T21:23:39.816Z,41.94
2023-01-31T21:26:12.173Z,42.83
2023-01-31T21:28:43.760Z,41.78
2023-01-31T21:31:17.087Z,42.03
2023-01-31T21:33:49.323Z,42.08
2023-01-31T21:36:21.147Z,41.89
2023-01-31T21:38:52.491Z,41.74
2023-01-31T21:41:38.332Z,41.86
2023-01-31T21:44:08.047Z,42.45
2023-01-31T21:46:35.878Z,41.92
2023-01-31T21:49:02.969Z,41.91
2023-01-31T21:51:30.124Z,41.85
2023-01-31T21:53:57.455Z,41.94
2023-01-31T21:56:26.927Z,41.96
2023-01-31T21:58:54.847Z,42.14
2023-01-31T22:01:31.208Z,42.18
2023-01-31T22:03:59.292Z,42.05
2023-01-31T22:06:31.422Z,42.15
2023-01-31T22:09:00.571Z,42.10
2023-01-31T22:11:35.474Z,41.74
2023-01-31T22:14:05.613Z,42.23
2023-01-31T22:16:33.467Z,41.80
2023-01-31T22:19:01.358Z,42.24
2023-01-31T22:21:32.924Z,42.82
2023-01-31T22:24:03.905Z,42.36
2023-01-31T22:26:34.878Z,42.77
2023-01-31T22:29:04.231Z,42.47
2023-01-31T22:31:32.340Z,42.32
2023-01-31T22:34:00.344Z,42.53
2023-01-31T22:36:28.142Z,42.88
2023-01-31T22:38:55.370Z,42.94
2023-01-31T22:41:22.829Z,42.54
2023-01-31T22:43:51.599Z,42.46
2023-01-31T22:46:24.676Z,42.88
2023-01-31T22:48:53.273Z,42.81
2023-01-31T22:51:23.452Z,43.19
2023-01-31T22:53:51.030Z,43.39
2023-01-31T22:56:18.231Z,42.86
2023-01-31T22:58:48.716Z,43.56
2023-01-31T23:01:18.663Z,43.40
2023-01-31T23:03:56.234Z,44.01
2023-01-31T23:06:23.810Z,43.94
2023-01-31T23:08:50.709Z,43.87
2023-01-31T23:11:18.570Z,43.79
2023-01-31T23:13:47.955Z,44.05
2023-01-31T23:16:18.020Z,44.10
2023-01-31T23:18:45.489Z,44.22
2023-01-31T23:21:15.915Z,44.07
2023-01-31T23:23:43.324Z,44.00
2023-01-31T23:26:10.933Z,44.04
2023-01-31T23:28:38.793Z,44.34
2023-01-31T23:31:07.560Z,44.77
2023-01-31T23:33:34.612Z,44.44
2023-01-31T23:36:04.996Z,44.73
2023-01-31T23:38:32.075Z,44.61
2023-01-31T23:41:02.234Z,44.29
2023-01-31T23:43:29.539Z,44.49
2023-01-31T23:46:05.668Z,44.81
2023-01-31T23:48:32.829Z,45.34
2023-01-31T23:51:04.727Z,45.18
2023-01-31T23:53:32.261Z,45.88
2023-01-31T23:55:59.452Z,45.15
2023-01-31T23:58:26.553Z,45.84
